createdAt,value
2019-01-06T00:00:19.119Z,3.80
2019-01-06T00:03:18.438Z,4.07
2019-01-06T00:06:17.983Z,5.60
2019-01-06T00:09:07.413Z,5.37
2019-01-06T00:12:11.886Z,4.73
2019-01-06T00:15:02.231Z,5.23
2019-01-06T00:17:50.006Z,5.60
2019-01-06T00:20:51.133Z,5.63
2019-01-06T00:23:52.386Z,6.30
2019-01-06T00:26:41.570Z,7.13
2019-01-06T00:29:28.943Z,6.87
2019-01-06T00:32:19.063Z,6.77
2019-01-06T00:35:06.814Z,7.40
2019-01-06T00:37:54.834Z,6.87
2019-01-06T00:40:39.463Z,6.57
2019-01-06T00:43:28.642Z,7.03
2019-01-06T00:46:16.650Z,7.13
2019-01-06T00:49:21.174Z,6.03
2019-01-06T00:52:23.778Z,5.60
2019-01-06T00:55:12.021Z,5.20
2019-01-06T00:57:59.857Z,5.20
2019-01-06T01:01:01.311Z,5.47
2019-01-06T01:03:45.258Z,5.67
2019-01-06T01:06:43.054Z,5.30
2019-01-06T01:09:48.194Z,4.97
2019-01-06T01:12:37.374Z,6.00
2019-01-06T01:15:23.527Z,6.03
2019-01-06T01:18:18.538Z,5.87
2019-01-06T01:21:07.695Z,5.67
2019-01-06T01:23:53.819Z,5.33
2019-01-06T01:26:39.273Z,5.73
2019-01-06T01:29:43.651Z,6.33
2019-01-06T01:32:31.630Z,6.60
2019-01-06T01:35:14.890Z,6.43
2019-01-06T01:38:04.060Z,6.80
2019-01-06T01:40:56.306Z,6.70
2019-01-06T01:43:54.322Z,7.63
2019-01-06T01:46:42.530Z,7.27
2019-01-06T01:49:40.482Z,6.53
2019-01-06T01:52:28.563Z,7.37
2019-01-06T01:55:17.714Z,6.87
2019-01-06T01:58:07.187Z,6.60
2019-01-06T02:00:55.034Z,8.13
2019-01-06T02:03:43.407Z,7.33
2019-01-06T02:06:38.760Z,7.20
2019-01-06T02:09:32.070Z,7.63
2019-01-06T02:12:33.219Z,8.77
2019-01-06T02:15:29.444Z,8.63
2019-01-06T02:18:24.476Z,8.87
2019-01-06T02:21:16.489Z,9.53
2019-01-06T02:23:55.846Z,9.90
2019-01-06T02:27:09.177Z,9.77
2019-01-06T02:29:55.886Z,8.97
2019-01-06T02:32:57.172Z,9.17
2019-01-06T02:35:59.031Z,9.93
2019-01-06T02:38:54.027Z,10.10
2019-01-06T02:41:49.160Z,10.30
2019-01-06T02:44:42.223Z,10.33
2019-01-06T02:47:30.058Z,9.17
2019-01-06T02:50:43.302Z,10.60
2019-01-06T02:53:24.650Z,10.20
2019-01-06T02:56:22.954Z,10.07
2019-01-06T02:59:10.919Z,10.67
2019-01-06T03:01:58.628Z,9.77
2019-01-06T03:04:51.459Z,11.07
2019-01-06T03:07:49.943Z,11.17
2019-01-06T03:10:37.825Z,10.23
2019-01-06T03:13:25.912Z,10.40
2019-01-06T03:16:28.098Z,10.40
2019-01-06T03:19:17.275Z,10.43
2019-01-06T03:22:02.538Z,10.70
2019-01-06T03:24:54.582Z,9.83
2019-01-06T03:27:39.490Z,10.87
2019-01-06T03:30:28.842Z,10.77
2019-01-06T03:33:18.018Z,11.03
2019-01-06T03:36:18.359Z,10.77
2019-01-06T03:39:06.091Z,10.57
2019-01-06T03:42:13.539Z,10.90
2019-01-06T03:45:05.622Z,11.07
2019-01-06T03:48:04.171Z,11.47
2019-01-06T03:50:56.078Z,11.47
2019-01-06T03:53:44.766Z,11.23
2019-01-06T03:56:32.628Z,11.20
2019-01-06T03:59:25.087Z,10.03
2019-01-06T04:02:21.163Z,11.27
2019-01-06T04:05:09.241Z,11.70
2019-01-06T04:08:01.036Z,11.33
2019-01-06T04:10:49.559Z,11.47
2019-01-06T04:13:38.736Z,12.20
2019-01-06T04:16:35.934Z,11.77
2019-01-06T04:19:28.330Z,12.67
2019-01-06T04:22:17.067Z,11.63
2019-01-06T04:25:05.150Z,11.23
2019-01-06T04:28:03.625Z,11.30
2019-01-06T04:31:02.189Z,11.77
2019-01-06T04:33:51.700Z,11.30
2019-01-06T04:36:39.522Z,11.33
2019-01-06T04:39:27.724Z,11.30
2019-01-06T04:42:15.417Z,11.80
2019-01-06T04:45:16.738Z,13.07
2019-01-06T04:48:11.991Z,11.30
2019-01-06T04:51:01.182Z,10.47
2019-01-06T04:53:49.092Z,11.47
2019-01-06T04:56:47.698Z,11.50
2019-01-06T04:59:35.422Z,11.10
2019-01-06T05:02:24.627Z,10.63
2019-01-06T05:05:15.370Z,11.20
2019-01-06T05:08:07.418Z,11.13
2019-01-06T05:11:11.727Z,10.57
2019-01-06T05:13:52.446Z,10.47
2019-01-06T05:16:44.685Z,11.00
2019-01-06T05:19:32.801Z,10.03
2019-01-06T05:22:13.755Z,10.53
2019-01-06T05:25:01.887Z,9.80
2019-01-06T05:27:51.584Z,10.20
2019-01-06T05:30:54.103Z,10.43
2019-01-06T05:33:55.559Z,10.37
2019-01-06T05:36:37.861Z,9.90
2019-01-06T05:39:22.175Z,10.27
2019-01-06T05:42:10.142Z,10.07
2019-01-06T05:45:02.316Z,9.27
2019-01-06T05:47:50.285Z,9.13
2019-01-06T05:50:38.337Z,9.33
2019-01-06T05:53:22.926Z,8.90
2019-01-06T05:56:18.292Z,9.40
2019-01-06T05:59:18.770Z,8.63
2019-01-06T06:02:13.834Z,9.07
2019-01-06T06:05:18.094Z,8.57
2019-01-06T06:08:09.070Z,8.03
2019-01-06T06:10:59.910Z,8.73
2019-01-06T06:13:47.746Z,8.37
2019-01-06T06:16:36.994Z,8.40
2019-01-06T06:19:25.258Z,8.70
2019-01-06T06:22:14.124Z,8.80
2019-01-06T06:25:08.988Z,8.10
2019-01-06T06:27:51.674Z,8.23
2019-01-06T06:30:49.975Z,7.63
2019-01-06T06:33:35.698Z,7.57
2019-01-06T06:36:23.596Z,8.77
2019-01-06T06:42:24.251Z,8.17
2019-01-06T06:45:13.147Z,8.23
2019-01-06T06:48:10.821Z,7.60
2019-01-06T06:51:25.159Z,7.60
2019-01-06T06:54:17.602Z,7.80
2019-01-06T06:57:14.478Z,7.63
2019-01-06T07:00:40.642Z,7.47
2019-01-06T07:03:41.738Z,8.73
2019-01-06T07:06:29.406Z,8.10
2019-01-06T07:09:21.642Z,7.67
2019-01-06T07:12:10.791Z,8.00
2019-01-06T07:14:59.988Z,7.83
2019-01-06T07:18:04.638Z,6.97
2019-01-06T07:20:53.280Z,6.83
2019-01-06T07:23:57.447Z,7.63
2019-01-06T07:27:05.063Z,6.97
2019-01-06T07:29:49.278Z,7.03
2019-01-06T07:32:37.340Z,6.60
2019-01-06T07:35:25.107Z,6.80
2019-01-06T07:38:20.099Z,6.37
2019-01-06T07:41:07.806Z,6.30
2019-01-06T07:43:55.820Z,5.70
2019-01-06T07:46:51.138Z,5.30
2019-01-06T07:49:39.103Z,5.77
2019-01-06T07:52:43.665Z,5.40
2019-01-06T07:55:31.918Z,5.33
2019-01-06T07:58:19.887Z,4.90
2019-01-06T08:01:05.234Z,5.20
2019-01-06T08:03:53.204Z,5.27
2019-01-06T08:06:51.810Z,5.13
2019-01-06T08:09:59.426Z,5.00
2019-01-06T08:13:13.579Z,4.33
2019-01-06T08:16:01.598Z,4.37
2019-01-06T08:19:06.166Z,4.13
2019-01-06T08:22:07.482Z,3.90
2019-01-06T08:25:03.046Z,4.57
2019-01-06T08:27:51.507Z,3.90
2019-01-06T08:30:40.690Z,4.60
2019-01-06T08:33:28.243Z,4.40
2019-01-06T08:36:16.395Z,4.00
2019-01-06T08:39:04.223Z,4.10
2019-01-06T08:41:57.163Z,4.23
2019-01-06T08:44:45.142Z,3.80
2019-01-06T08:47:40.034Z,4.00
2019-01-06T08:50:19.770Z,3.83
2019-01-06T08:53:09.379Z,3.60
2019-01-06T08:55:57.606Z,4.07
2019-01-06T08:58:50.479Z,3.43
2019-01-06T09:01:38.657Z,3.87
2019-01-06T09:04:32.482Z,3.80
2019-01-06T09:07:37.348Z,3.70
2019-01-06T09:10:29.627Z,3.30
2019-01-06T09:13:28.049Z,4.10
2019-01-06T09:16:20.404Z,4.00
2019-01-06T09:19:09.530Z,3.63
2019-01-06T09:21:57.875Z,3.20
2019-01-06T09:24:56.328Z,3.47
2019-01-06T09:27:40.051Z,3.27
2019-01-06T09:30:44.122Z,3.30
2019-01-06T09:33:32.211Z,3.67
2019-01-06T09:36:19.966Z,4.17
2019-01-06T09:39:06.309Z,3.67
2019-01-06T09:42:00.387Z,4.50
2019-01-06T09:44:48.174Z,2.73
2019-01-06T09:47:36.014Z,2.90
2019-01-06T09:50:37.258Z,3.03
2019-01-06T09:53:44.827Z,2.73
2019-01-06T09:56:48.933Z,3.07
2019-01-06T09:59:47.079Z,3.50
2019-01-06T10:02:37.055Z,3.27
2019-01-06T10:05:25.143Z,2.40
2019-01-06T10:08:17.159Z,2.40
2019-01-06T10:11:05.011Z,2.77
2019-01-06T10:13:51.311Z,2.50
2019-01-06T10:16:39.338Z,2.47
2019-01-06T10:19:31.792Z,2.13
2019-01-06T10:22:24.794Z,2.50
2019-01-06T10:25:12.678Z,2.00
2019-01-06T10:28:13.947Z,2.60
2019-01-06T10:31:03.258Z,2.77
2019-01-06T10:33:56.974Z,2.47
2019-01-06T10:36:55.141Z,1.93
2019-01-06T10:39:56.355Z,2.27
2019-01-06T10:42:44.375Z,1.63
2019-01-06T10:45:25.626Z,1.80
2019-01-06T10:48:15.143Z,1.80
2019-01-06T10:51:03.100Z,2.07
2019-01-06T10:53:52.552Z,1.80
2019-01-06T10:56:53.766Z,1.50
2019-01-06T10:59:41.626Z,1.53
2019-01-06T11:02:29.966Z,1.83
2019-01-06T11:05:28.770Z,1.50
2019-01-06T11:08:18.017Z,1.20
2019-01-06T11:11:06.626Z,1.30
2019-01-06T11:13:58.586Z,1.40
2019-01-06T11:16:47.847Z,1.43
2019-01-06T11:19:45.990Z,1.20
2019-01-06T11:22:44.306Z,1.20
2019-01-06T11:25:51.997Z,1.23
2019-01-06T11:28:42.057Z,1.13
2019-01-06T11:31:29.939Z,1.13
2019-01-06T11:34:17.878Z,1.67
2019-01-06T11:37:05.718Z,1.37
2019-01-06T11:39:53.909Z,1.57
2019-01-06T11:42:41.673Z,1.53
2019-01-06T11:45:44.292Z,1.70
2019-01-06T11:48:33.443Z,2.00
2019-01-06T11:51:18.682Z,2.00
2019-01-06T11:54:10.866Z,2.10
2019-01-06T11:57:12.226Z,2.30
2019-01-06T12:00:01.367Z,2.93
2019-01-06T12:02:50.634Z,2.40
2019-01-06T12:05:52.868Z,2.87
2019-01-06T12:08:46.554Z,3.40
2019-01-06T12:11:44.879Z,2.40
2019-01-06T12:14:36.974Z,2.80
2019-01-06T12:17:26.121Z,2.30
2019-01-06T12:20:38.495Z,2.90
2019-01-06T12:23:33.828Z,2.50
2019-01-06T12:26:35.191Z,2.60
2019-01-06T12:29:32.038Z,2.90
2019-01-06T12:32:15.842Z,2.70
2019-01-06T12:35:10.102Z,2.77
2019-01-06T12:38:04.147Z,2.77
2019-01-06T12:41:08.446Z,2.77
2019-01-06T12:44:06.983Z,2.70
2019-01-06T12:46:55.011Z,2.80
2019-01-06T12:49:44.306Z,3.03
2019-01-06T12:52:39.248Z,2.90
2019-01-06T12:55:19.915Z,2.67
2019-01-06T12:58:08.081Z,3.00
2019-01-06T13:00:56.435Z,3.43
2019-01-06T13:03:49.987Z,3.10
2019-01-06T13:06:37.886Z,3.30
2019-01-06T13:09:26.058Z,3.00
2019-01-06T13:12:21.575Z,2.30
2019-01-06T13:15:09.349Z,2.33
2019-01-06T13:18:01.667Z,2.27
2019-01-06T13:20:49.694Z,2.50
2019-01-06T13:24:09.042Z,2.43
2019-01-06T13:27:13.495Z,2.63
2019-01-06T13:30:18.763Z,2.33
2019-01-06T13:33:06.547Z,2.87
2019-01-06T13:35:53.202Z,2.70
2019-01-06T13:38:40.906Z,2.40
2019-01-06T13:41:37.054Z,2.50
2019-01-06T13:44:34.798Z,2.50
2019-01-06T13:47:24.314Z,2.53
2019-01-06T13:50:12.517Z,2.80
2019-01-06T13:53:14.116Z,3.10
2019-01-06T13:56:02.318Z,2.50
2019-01-06T13:58:51.391Z,2.90
2019-01-06T14:01:40.005Z,3.13
2019-01-06T14:04:47.578Z,2.67
2019-01-06T14:07:42.745Z,2.70
2019-01-06T14:10:24.372Z,2.50
2019-01-06T14:13:03.571Z,2.20
2019-01-06T14:15:55.910Z,2.53
2019-01-06T14:18:44.324Z,2.40
2019-01-06T14:21:33.514Z,2.70
2019-01-06T14:24:19.215Z,2.70
2019-01-06T14:27:19.827Z,2.60
2019-01-06T14:30:15.839Z,2.43
2019-01-06T14:33:05.118Z,2.57
2019-01-06T14:35:48.382Z,2.50
2019-01-06T14:38:40.760Z,2.40
2019-01-06T14:41:22.619Z,2.70
2019-01-06T14:44:14.835Z,2.57
2019-01-06T14:47:02.629Z,2.90
2019-01-06T14:50:10.262Z,2.77
2019-01-06T14:53:11.662Z,3.20
2019-01-06T14:55:50.591Z,3.40
2019-01-06T14:58:38.390Z,3.80
2019-01-06T15:01:39.724Z,4.00
2019-01-06T15:04:28.886Z,12.90
2019-01-06T15:07:21.281Z,6.47
2019-01-06T15:10:10.803Z,5.83
2019-01-06T15:13:04.740Z,5.27
2019-01-06T15:15:52.699Z,5.97
2019-01-06T15:18:40.854Z,5.47
2019-01-06T15:21:34.479Z,4.80
2019-01-06T15:24:22.870Z,5.07
2019-01-06T15:27:10.658Z,4.90
2019-01-06T15:30:00.270Z,4.73
2019-01-06T15:32:48.558Z,4.80
2019-01-06T15:35:33.607Z,4.53
2019-01-06T15:38:35.043Z,4.80
2019-01-06T15:41:24.239Z,5.27
2019-01-06T15:44:11.924Z,4.57
2019-01-06T15:46:55.278Z,4.97
2019-01-06T15:49:34.579Z,5.10
2019-01-06T15:52:23.766Z,5.07
2019-01-06T15:55:21.099Z,5.47
2019-01-06T15:58:19.423Z,4.90
2019-01-06T16:01:08.582Z,5.20
2019-01-06T16:04:04.315Z,5.40
2019-01-06T16:06:52.867Z,4.60
2019-01-06T16:09:47.830Z,4.60
2019-01-06T16:12:27.166Z,4.93
2019-01-06T16:15:22.563Z,5.13
2019-01-06T16:18:10.602Z,5.30
2019-01-06T16:21:02.997Z,4.80
2019-01-06T16:24:01.059Z,5.03
2019-01-06T16:27:05.398Z,5.50
2019-01-06T16:30:06.685Z,4.70
2019-01-06T16:33:15.316Z,5.50
2019-01-06T16:36:13.686Z,5.40
2019-01-06T16:39:00.865Z,5.40
2019-01-06T16:41:48.783Z,5.73
2019-01-06T16:44:47.278Z,5.70
2019-01-06T16:47:42.267Z,5.13
2019-01-06T16:50:37.236Z,5.90
2019-01-06T16:53:29.422Z,6.07
2019-01-06T16:56:30.666Z,5.80
2019-01-06T16:59:18.970Z,6.30
2019-01-06T17:02:11.118Z,6.00
2019-01-06T17:05:09.347Z,5.93
2019-01-06T17:07:58.510Z,6.40
2019-01-06T17:10:53.482Z,6.00
2019-01-06T17:13:41.353Z,6.53
2019-01-06T17:16:29.486Z,6.43
2019-01-06T17:19:17.731Z,6.40
2019-01-06T17:22:13.094Z,6.47
2019-01-06T17:25:01.009Z,6.80
2019-01-06T17:28:02.193Z,7.73
2019-01-06T17:31:02.927Z,7.57
2019-01-06T17:33:46.565Z,7.97
2019-01-06T17:36:34.404Z,7.10
2019-01-06T17:39:37.578Z,7.70
2019-01-06T17:42:33.686Z,8.40
2019-01-06T17:45:21.854Z,7.70
2019-01-06T17:48:20.127Z,8.87
2019-01-06T17:51:09.554Z,8.67
2019-01-06T17:53:52.510Z,9.23
2019-01-06T17:56:52.815Z,8.30
2019-01-06T17:59:44.566Z,8.60
2019-01-06T18:02:36.820Z,8.43
2019-01-06T18:05:25.003Z,8.37
2019-01-06T18:08:32.399Z,8.17
2019-01-06T18:11:16.990Z,8.13
2019-01-06T18:14:05.374Z,8.43
2019-01-06T18:16:53.546Z,8.10
2019-01-06T18:19:54.610Z,9.00
2019-01-06T18:22:37.763Z,8.70
2019-01-06T18:25:29.050Z,8.07
2019-01-06T18:28:14.046Z,8.50
2019-01-06T18:31:02.062Z,7.60
2019-01-06T18:33:50.514Z,8.73
2019-01-06T18:36:48.378Z,8.77
2019-01-06T18:39:36.586Z,9.13
2019-01-06T18:42:21.598Z,8.73
2019-01-06T18:45:16.718Z,8.97
2019-01-06T18:48:03.422Z,8.07
2019-01-06T18:50:51.738Z,7.83
2019-01-06T18:53:49.708Z,8.83
2019-01-06T18:56:38.902Z,8.23
2019-01-06T18:59:40.670Z,9.00
2019-01-06T19:02:35.651Z,9.13
2019-01-06T19:05:38.338Z,8.57
2019-01-06T19:08:39.435Z,9.13
2019-01-06T19:11:28.578Z,9.37
2019-01-06T19:14:16.426Z,9.20
2019-01-06T19:17:20.703Z,9.10
2019-01-06T19:20:09.897Z,8.97
2019-01-06T19:23:05.386Z,9.80
2019-01-06T19:25:53.615Z,9.03
2019-01-06T19:28:43.788Z,10.47
2019-01-06T19:31:32.935Z,9.00
2019-01-06T19:34:25.206Z,8.93
2019-01-06T19:37:09.326Z,9.73
2019-01-06T19:40:10.715Z,9.87
2019-01-06T19:42:59.874Z,10.30
2019-01-06T19:46:01.175Z,10.87
2019-01-06T19:48:44.219Z,10.47
2019-01-06T19:51:30.518Z,11.13
2019-01-06T19:54:18.709Z,10.87
2019-01-06T19:57:07.867Z,10.70
2019-01-06T20:00:06.418Z,10.80
2019-01-06T20:03:04.395Z,10.60
2019-01-06T20:06:12.037Z,11.13
2019-01-06T20:09:13.499Z,11.67
2019-01-06T20:12:05.450Z,10.97
2019-01-06T20:14:53.307Z,10.93
2019-01-06T20:17:38.107Z,11.60
2019-01-06T20:20:27.522Z,11.77
2019-01-06T20:23:19.517Z,12.53
2019-01-06T20:26:08.690Z,11.73
2019-01-06T20:28:56.849Z,11.77
2019-01-06T20:31:44.754Z,12.33
2019-01-06T20:34:50.482Z,13.23
2019-01-06T20:37:51.622Z,12.70
2019-01-06T20:40:51.447Z,14.37
2019-01-06T20:43:46.986Z,13.83
2019-01-06T20:46:34.942Z,13.83
2019-01-06T20:49:20.371Z,13.23
2019-01-06T20:52:12.383Z,15.47
2019-01-06T20:55:16.831Z,14.13
2019-01-06T20:58:12.676Z,13.80
2019-01-06T21:01:00.493Z,13.37
2019-01-06T21:03:48.555Z,13.23
2019-01-06T21:06:40.462Z,14.67
2019-01-06T21:09:32.567Z,14.63
2019-01-06T21:12:14.290Z,14.43
2019-01-06T21:15:02.334Z,13.63
2019-01-06T21:17:50.568Z,14.00
2019-01-06T21:20:32.313Z,14.13
2019-01-06T21:23:20.112Z,13.50
2019-01-06T21:26:21.371Z,13.83
2019-01-06T21:29:19.470Z,13.97
2019-01-06T21:32:13.130Z,13.30
2019-01-06T21:35:17.715Z,13.30
2019-01-06T21:38:23.518Z,12.70
2019-01-06T21:41:11.373Z,12.83
2019-01-06T21:44:01.544Z,12.20
2019-01-06T21:46:59.575Z,12.73
2019-01-06T21:49:59.974Z,12.83
2019-01-06T21:52:43.285Z,13.40
2019-01-06T21:55:31.170Z,12.87
2019-01-06T21:58:19.138Z,14.67
2019-01-06T22:01:20.472Z,12.80
2019-01-06T22:04:09.438Z,12.57
2019-01-06T22:07:10.931Z,13.53
2019-01-06T22:10:10.614Z,13.53
2019-01-06T22:13:06.438Z,12.67
2019-01-06T22:15:54.244Z,11.70
2019-01-06T22:18:43.407Z,12.67
2019-01-06T22:21:35.326Z,12.77
2019-01-06T22:24:24.497Z,13.50
2019-01-06T22:27:22.504Z,12.73
2019-01-06T22:30:17.693Z,13.27
2019-01-06T22:33:21.885Z,13.20
2019-01-06T22:36:06.361Z,12.97
2019-01-06T22:39:04.382Z,11.60
2019-01-06T22:41:53.641Z,12.70
2019-01-06T22:44:41.709Z,12.07
2019-01-06T22:47:29.795Z,13.10
2019-01-06T22:50:27.866Z,12.17
2019-01-06T22:53:15.741Z,13.57
2019-01-06T22:56:10.946Z,14.33
2019-01-06T22:59:05.997Z,13.47
2019-01-06T23:01:54.070Z,13.40
2019-01-06T23:04:50.465Z,14.17
2019-01-06T23:07:57.854Z,14.93
2019-01-06T23:10:45.971Z,14.57
2019-01-06T23:13:47.179Z,14.30
2019-01-06T23:16:42.238Z,14.00
2019-01-06T23:19:36.306Z,14.93
2019-01-06T23:22:37.174Z,14.93
2019-01-06T23:25:25.210Z,13.63
2019-01-06T23:28:18.782Z,14.23
2019-01-06T23:31:10.738Z,13.97
2019-01-06T23:34:05.959Z,12.80
2019-01-06T23:36:53.746Z,14.80
2019-01-06T23:39:41.810Z,14.30
2019-01-06T23:42:29.552Z,14.97
2019-01-06T23:45:18.726Z,14.27
2019-01-06T23:48:11.203Z,13.70
2019-01-06T23:50:50.262Z,14.20
2019-01-06T23:53:49.354Z,14.10
2019-01-06T23:56:37.484Z,16.17
2019-01-06T23:59:35.795Z,16.17
